CheckWX is a tool to help pilots better visualize weather data.  It is not intended as a substitute for an official pre-flight weather briefing.

22:15:12 UTC

KHGR METAR
Hagerstown Regional-Richard A Henson Field Airport
Hagerstown, Maryland, USA
Current

22 mins ago

KHGR 152153Z 31004KT 10SM CLR 32/15 A3005 RMK AO2 SLP178 T03170150
Observed
Jul-15 @ 21:53 UTC
Wind
  • 310° at 4 KTS
Visibility
10 SM
Flight Rules
VFR
Cloud Levels
  • Clear skies
Temperature
32°C / 90°F
Dewpoint
15°C / 59°F
Humidity
36%
Altimeter
30.05" Hg
Pressure
1017.62 hPa
Previous

1 hour ago

KHGR 152053Z 29003KT 10SM CLR 32/14 A3006 RMK AO2 SLP182 T03170144 58013
Observed
Jul-15 @ 20:53 UTC
Wind
  • 290° at 3 KTS
Visibility
10 SM
Flight Rules
VFR
Cloud Levels
  • Clear skies
Temperature
32°C / 90°F
Dewpoint
14°C / 57°F
Humidity
33%
Altimeter
30.06" Hg
Pressure
1017.92 hPa
Previous

2 hours ago

KHGR 151953Z 30004KT 10SM CLR 31/15 A3007 RMK AO2 SLP185 T03110150
Observed
Jul-15 @ 19:53 UTC
Wind
  • 300° at 4 KTS
Visibility
10 SM
Flight Rules
VFR
Cloud Levels
  • Clear skies
Temperature
31°C / 88°F
Dewpoint
15°C / 59°F
Humidity
38%
Altimeter
30.07" Hg
Pressure
1018.32 hPa